メインページ
METAR-TAF:

METAR-TAF

空港 :

ヤップ国際空港

ヤップ州, ミクロネシア

緯度: 09-29N, 経度: 138-05E, 海抜: 28m

現時点の気象観測

当レポートは22分前の01:50(UTC)に作成
東/北東の風 11kt
気温 31°C
湿度 75%
気圧 1010 hPa
視程: 19.3km
高度1700ftの雲は散在している
高度30000ftの千切れ雲あり

METAR: PTYA 150150Z 06011KT 12SM SCT017 BKN300 31/26 A2983 RMK SLP101 T03060255

時間: 12:12 (02:12 UTC)

予報

当レポートは2時間34分前の23:38(UTC)に作成
予報は15日の 00時(UTC)から 15日の 24時(UTC)まで有効
北東の風 12kt、最大20ktの突風を伴う
視程: 10km
高度1800ftの雲はほとんどない
高度4000ftの雲は散在している
近辺でにわか雨
15日の 0900時(UTC)から
東/北東の風 11kt
視程: 10km
高度1800ftの雲はほとんどない
高度4000ftの雲は散在している
近辺でにわか雨
15日の 2300時(UTC)から
北東の風 14kt
視程: 10km
高度1600ftの雲は散在している
高度4000ftの雲は散在している
高度13000ftの千切れ雲あり
近辺でにわか雨

TAF: PTYA 142338Z 1500/1524 05012G20KT P6SM VCSH FEW018 SCT040 FM150900 06011KT P6SM VCSH FEW018 SCT040 FM152300 04014KT P6SM VCSH SCT016 SCT040 BKN130

4,000以上の空港の気象観測と天気予報(METAR報とTAF報)

利用可能な観測所は地図上に黄色い丸と赤い丸で示す。

丸の上にカーソルを重ねると観測所名を参照できる。

次にクリックすると気象観測と天気予報を参照できる。

マップの切り替え:黒色「×」印の緑ボタンをクリックして拡大、「-」印の緑ボタンをクリックして縮小、緑色の三角印をクリックして隣りの地図に切り替え


METAR-TAF: